Time;durP1;ratioP1;P1;durP2;ratioP2;P2;SDS_P1;SDS_P2;PMS_P1;PMS_P2;Temp;Humidity;BMP_temperature;BMP_pressure;BME280_temperature;BME280_humidity;BME280_pressure;Samples;Min_cycle;Max_cycle;Signal;HPM_P1;HPM_P2
2022/01/02 00:00:14;;;;;;;4.82;2.10;;;8.70;99.90;;;;;;5027294;28;20016;-74
2022/01/02 00:02:52;;;;;;;3.55;2.40;;;8.70;99.90;;;;;;5042191;28;20105;-74
2022/01/02 00:05:21;;;;;;;4.70;2.47;;;8.70;99.90;;;;;;5039424;28;20021;-74
2022/01/02 00:08:06;;;;;;;4.15;2.20;;;8.60;99.90;;;;;;5045857;28;20474;-74
2022/01/02 00:10:45;;;;;;;4.15;2.10;;;8.60;99.90;;;;;;5041257;28;20025;-74
2022/01/02 00:13:17;;;;;;;4.55;2.47;;;8.60;99.90;;;;;;5047189;28;20496;-74
2022/01/02 00:15:46;;;;;;;4.47;2.30;;;8.60;99.90;;;;;;5044380;28;20025;-74
2022/01/02 00:18:15;;;;;;;4.20;2.95;;;8.50;99.90;;;;;;5045538;28;20085;-74
2022/01/02 00:20:47;;;;;;;5.75;2.78;;;8.50;99.90;;;;;;5027274;28;20021;-74
2022/01/02 00:23:21;;;;;;;6.00;2.92;;;8.40;99.90;;;;;;5048525;28;20021;-75
2022/01/02 00:25:52;;;;;;;4.32;2.25;;;8.30;99.90;;;;;;5031396;28;20697;-74
2022/01/02 00:28:23;;;;;;;4.65;2.58;;;8.30;99.90;;;;;;5025026;28;20126;-74
2022/01/02 00:30:49;;;;;;;4.57;3.00;;;8.30;99.90;;;;;;5024110;28;20017;-73
2022/01/02 00:33:15;;;;;;;4.68;3.35;;;8.30;99.90;;;;;;5030178;28;20932;-74
2022/01/02 00:35:40;;;;;;;4.57;2.50;;;8.30;99.90;;;;;;5046255;28;20020;-73
2022/01/02 00:38:22;;;;;;;3.73;2.70;;;8.20;99.90;;;;;;5043418;28;20535;-73
2022/01/02 00:40:54;;;;;;;3.70;2.47;;;8.20;99.90;;;;;;5038279;28;20093;-73
2022/01/02 00:43:30;;;;;;;4.55;2.65;;;8.10;99.90;;;;;;5028531;28;20120;-73
2022/01/02 00:46:00;;;;;;;7.57;2.67;;;8.10;99.90;;;;;;5040345;28;20036;-73
2022/01/02 00:48:29;;;;;;;4.28;2.75;;;8.10;99.90;;;;;;5026089;28;20377;-75
2022/01/02 00:51:32;;;;;;;5.20;2.28;;;8.10;99.90;;;;;;5025609;28;20028;-74
2022/01/02 00:54:00;;;;;;;4.10;2.88;;;8.10;99.90;;;;;;5036712;28;20043;-74
2022/01/02 00:56:29;;;;;;;3.65;2.10;;;8.00;99.90;;;;;;5042856;28;20126;-73
2022/01/02 00:59:11;;;;;;;3.33;1.73;;;8.00;99.90;;;;;;5041010;28;20017;-74
2022/01/02 01:01:41;;;;;;;4.43;2.00;;;8.00;99.90;;;;;;5045247;28;20074;-73
2022/01/02 01:04:13;;;;;;;3.67;2.63;;;7.90;99.90;;;;;;5022767;28;20429;-73
2022/01/02 01:06:41;;;;;;;2.70;2.00;;;7.90;99.90;;;;;;5045314;28;20095;-73
2022/01/02 01:09:13;;;;;;;3.55;1.90;;;7.90;99.90;;;;;;5039087;28;20852;-73
2022/01/02 01:11:44;;;;;;;2.65;2.00;;;7.90;99.90;;;;;;5046129;28;20017;-73
2022/01/02 01:14:11;;;;;;;3.60;2.30;;;7.90;99.90;;;;;;5022661;28;20383;-74
2022/01/02 01:16:38;;;;;;;2.53;1.60;;;7.80;99.90;;;;;;5045880;28;20021;-74
2022/01/02 01:19:04;;;;;;;3.78;1.73;;;7.80;99.90;;;;;;5025702;28;20299;-77
2022/01/02 01:21:29;;;;;;;3.93;1.60;;;7.80;99.90;;;;;;5046398;28;20107;-74
2022/01/02 01:23:56;;;;;;;2.73;1.97;;;7.90;99.90;;;;;;5023839;28;20025;-73
2022/01/02 01:26:23;;;;;;;2.42;1.77;;;7.90;99.90;;;;;;5030800;28;20409;-73
2022/01/02 01:28:52;;;;;;;;;;;7.90;99.90;;;;;;5041166;28;20908;-73
2022/01/02 01:31:25;;;;;;;4.70;1.95;;;7.90;99.90;;;;;;5044274;28;19917;-73
2022/01/02 01:33:50;;;;;;;2.70;1.80;;;7.90;99.90;;;;;;5043045;28;20025;-74
2022/01/02 01:36:17;;;;;;;3.60;2.20;;;7.90;99.90;;;;;;5039498;28;20078;-74
2022/01/02 01:38:44;;;;;;;3.20;1.83;;;7.90;99.90;;;;;;5047309;28;20024;-73
2022/01/02 01:41:23;;;;;;;4.13;2.40;;;7.90;99.90;;;;;;5041428;28;20540;-75
2022/01/02 01:44:06;;;;;;;4.80;2.00;;;7.90;99.90;;;;;;5040245;28;20111;-73
2022/01/02 01:46:33;;;;;;;2.45;1.90;;;7.90;99.90;;;;;;5028043;28;20028;-73
2022/01/02 01:48:58;;;;;;;4.53;2.10;;;7.90;99.90;;;;;;5038097;28;20478;-74
2022/01/02 01:51:25;;;;;;;2.03;1.80;;;7.80;99.90;;;;;;5045964;28;20031;-74
2022/01/02 01:53:51;;;;;;;3.17;1.92;;;7.80;99.90;;;;;;5038649;28;20032;-74
2022/01/02 01:56:19;;;;;;;;;;;7.80;99.90;;;;;;5036502;28;20380;-74
2022/01/02 01:58:45;;;;;;;1.92;1.60;;;7.80;99.90;;;;;;5045909;28;19911;-73
2022/01/02 02:01:12;;;;;;;2.83;1.63;;;7.80;99.90;;;;;;5039104;28;20025;-74
2022/01/02 02:03:38;;;;;;;3.10;1.75;;;7.80;99.90;;;;;;5044416;28;20040;-73
2022/01/02 02:06:04;;;;;;;4.37;1.97;;;7.70;99.90;;;;;;5039123;28;20040;-74
2022/01/02 02:08:31;;;;;;;3.50;1.93;;;7.80;99.90;;;;;;5045931;28;20025;-74
2022/01/02 02:10:58;;;;;;;5.10;1.67;;;7.70;99.90;;;;;;5046478;28;20021;-73
2022/01/02 02:13:25;;;;;;;2.20;1.77;;;7.80;99.90;;;;;;5048158;28;20028;-73
2022/01/02 02:15:56;;;;;;;3.10;1.95;;;7.70;99.90;;;;;;5050453;28;20036;-73
2022/01/02 02:18:23;;;;;;;4.03;2.00;;;7.70;99.90;;;;;;5042708;28;20017;-73
2022/01/02 02:20:49;;;;;;;2.80;2.00;;;7.70;99.90;;;;;;5042323;28;20052;-73
2022/01/02 02:23:15;;;;;;;4.87;2.30;;;7.70;99.90;;;;;;5046184;28;20098;-73
2022/01/02 02:25:42;;;;;;;2.70;1.73;;;7.70;99.90;;;;;;5046476;28;20032;-73
2022/01/02 02:28:13;;;;;;;2.42;1.90;;;7.70;99.90;;;;;;5051603;28;20024;-73
2022/01/02 02:30:41;;;;;;;2.22;1.63;;;7.70;99.90;;;;;;5051147;28;20112;-73
2022/01/02 02:33:14;;;;;;;4.20;1.90;;;7.70;99.90;;;;;;5040975;28;20513;-74
2022/01/02 02:35:43;;;;;;;2.95;1.50;;;7.70;99.90;;;;;;5049569;28;20017;-73
2022/01/02 02:38:10;;;;;;;3.88;1.75;;;7.70;99.90;;;;;;5051175;28;20020;-74
2022/01/02 02:40:42;;;;;;;3.00;1.52;;;7.70;99.90;;;;;;5045654;28;20020;-74
2022/01/02 02:51:23;;;;;;;3.92;1.80;;;7.70;99.90;;;;;;5049178;28;20036;-74
2022/01/02 02:53:51;;;;;;;2.55;1.90;;;7.70;99.90;;;;;;5062474;28;20021;-73
2022/01/02 02:56:25;;;;;;;3.10;1.40;;;7.80;99.90;;;;;;5046948;28;20736;-74
2022/01/02 02:58:56;;;;;;;2.85;1.60;;;7.70;99.90;;;;;;5043504;28;20021;-73
2022/01/02 03:01:28;;;;;;;4.63;1.77;;;7.70;99.90;;;;;;5042956;28;20028;-73
2022/01/02 03:03:54;;;;;;;2.45;1.85;;;7.80;99.90;;;;;;5047859;28;20021;-74
2022/01/02 03:06:21;;;;;;;4.35;1.65;;;7.80;99.90;;;;;;5043574;28;20074;-74
2022/01/02 03:08:48;;;;;;;2.97;1.80;;;7.80;99.90;;;;;;5044314;28;20075;-73
2022/01/02 03:11:20;;;;;;;4.22;1.67;;;7.80;99.90;;;;;;5062503;28;20052;-73
2022/01/02 03:13:51;;;;;;;3.08;1.90;;;7.80;99.90;;;;;;5043944;28;20048;-73
2022/01/02 03:16:17;;;;;;;2.10;1.40;;;7.80;99.90;;;;;;5043455;28;20041;-73
2022/01/02 03:18:43;;;;;;;2.08;1.60;;;7.80;99.90;;;;;;5064088;28;20021;-73
2022/01/02 03:21:11;;;;;;;2.50;1.87;;;7.80;99.90;;;;;;5046612;28;20047;-73
2022/01/02 03:23:44;;;;;;;2.38;1.67;;;7.80;99.90;;;;;;5039041;28;20681;-73
2022/01/02 03:26:10;;;;;;;4.25;1.77;;;7.80;99.90;;;;;;5045468;28;20021;-75
2022/01/02 03:28:38;;;;;;;2.00;1.47;;;7.80;99.90;;;;;;5038208;28;20059;-73
2022/01/02 03:31:04;;;;;;;3.70;1.45;;;7.80;99.90;;;;;;5058172;28;20535;-78
2022/01/02 03:33:32;;;;;;;1.80;1.50;;;7.80;99.90;;;;;;5043823;28;20058;-73
2022/01/02 03:36:00;;;;;;;2.30;1.50;;;7.80;99.90;;;;;;5049674;28;20029;-73
2022/01/02 03:38:28;;;;;;;4.70;2.20;;;7.70;99.90;;;;;;5041507;28;20017;-73
2022/01/02 03:40:58;;;;;;;1.88;1.55;;;7.70;99.90;;;;;;5047612;28;20024;-74
2022/01/02 03:43:26;;;;;;;2.85;1.48;;;7.60;99.90;;;;;;5048495;28;20433;-73
2022/01/02 03:45:54;;;;;;;3.05;1.52;;;7.60;99.90;;;;;;5050223;28;20032;-74
2022/01/02 03:48:22;;;;;;;2.20;1.70;;;7.50;99.90;;;;;;5048543;28;20429;-74
2022/01/02 03:50:48;;;;;;;1.98;1.50;;;7.50;99.90;;;;;;5044905;28;20024;-75
2022/01/02 03:53:15;;;;;;;3.58;1.60;;;7.50;99.90;;;;;;5052939;28;20016;-82
2022/01/02 03:55:41;;;;;;;2.72;1.63;;;7.40;99.90;;;;;;5043582;28;20055;-77
2022/01/02 03:58:10;;;;;;;2.63;1.30;;;7.40;99.90;;;;;;5043047;28;20021;-82
2022/01/02 04:00:43;;;;;;;1.98;1.63;;;7.40;99.90;;;;;;5045264;28;20017;-74
2022/01/02 04:03:10;;;;;;;3.22;1.42;;;7.40;99.90;;;;;;5040242;28;20471;-74
2022/01/02 04:05:37;;;;;;;;;;;7.40;99.90;;;;;;5044476;28;20013;-74
2022/01/02 04:08:04;;;;;;;1.60;1.48;;;7.30;99.90;;;;;;5040412;28;19908;-74
2022/01/02 04:10:40;;;;;;;2.65;1.58;;;7.30;99.90;;;;;;5043890;28;20035;-76
2022/01/02 04:13:07;;;;;;;3.75;1.90;;;7.20;99.90;;;;;;5041005;28;20516;-81
2022/01/02 04:15:36;;;;;;;1.77;1.63;;;7.10;99.90;;;;;;5028143;28;20610;-74
2022/01/02 04:18:03;;;;;;;4.05;1.88;;;7.20;99.90;;;;;;5047472;28;20028;-74
2022/01/02 04:20:29;;;;;;;3.15;1.90;;;7.20;99.90;;;;;;5047452;28;20028;-75
2022/01/02 04:22:55;;;;;;;2.67;1.92;;;7.20;99.90;;;;;;5041021;28;20025;-74
2022/01/02 04:25:22;;;;;;;3.07;1.87;;;7.10;99.90;;;;;;5025968;28;20029;-74
2022/01/02 04:27:48;;;;;;;3.65;2.08;;;7.20;99.90;;;;;;5044833;28;20024;-74
2022/01/02 04:30:18;;;;;;;3.03;1.93;;;7.20;99.90;;;;;;5042007;28;20098;-74
2022/01/02 04:32:48;;;;;;;5.10;2.00;;;7.10;99.90;;;;;;5043731;28;20023;-74
2022/01/02 04:35:14;;;;;;;3.30;1.88;;;7.10;99.90;;;;;;5046330;28;20015;-74
2022/01/02 04:37:51;;;;;;;3.47;2.33;;;7.10;99.90;;;;;;5045364;28;20024;-74
2022/01/02 04:40:17;;;;;;;3.38;1.80;;;7.20;99.90;;;;;;5047619;28;20481;-75
2022/01/02 04:42:42;;;;;;;4.97;1.83;;;7.20;99.90;;;;;;5028892;28;20111;-76
2022/01/02 04:45:08;;;;;;;2.17;1.60;;;7.10;99.90;;;;;;5044892;28;20187;-73
2022/01/02 04:47:42;;;;;;;4.82;2.00;;;7.10;99.90;;;;;;5027032;28;20017;-76
2022/01/02 04:50:08;;;;;;;3.95;1.90;;;7.10;99.90;;;;;;5039921;28;20032;-73
2022/01/02 04:52:34;;;;;;;2.63;1.65;;;7.10;99.90;;;;;;5044771;28;20083;-74
2022/01/02 04:55:04;;;;;;;3.37;2.47;;;7.10;99.90;;;;;;5038239;28;20657;-74
2022/01/02 04:57:31;;;;;;;3.70;1.95;;;7.10;99.90;;;;;;5046176;28;20041;-77
2022/01/02 04:59:57;;;;;;;;;;;7.00;99.90;;;;;;5040845;28;20031;-75
2022/01/02 05:02:24;;;;;;;3.92;2.35;;;7.00;99.90;;;;;;5047085;28;19916;-76
2022/01/02 05:04:52;;;;;;;6.32;2.15;;;7.10;99.90;;;;;;5044136;28;21051;-75
2022/01/02 05:07:19;;;;;;;2.10;1.40;;;7.10;99.90;;;;;;5039178;28;20841;-75
2022/01/02 05:09:47;;;;;;;2.92;1.77;;;7.10;99.90;;;;;;5042335;28;20025;-76
2022/01/02 05:12:16;;;;;;;2.20;1.60;;;7.20;99.90;;;;;;5022421;28;21208;-74
2022/01/02 05:14:41;;;;;;;2.00;1.77;;;7.20;99.90;;;;;;5047175;28;20021;-74
2022/01/02 05:17:11;;;;;;;1.90;1.53;;;7.10;99.90;;;;;;5039316;28;20013;-75
2022/01/02 05:19:37;;;;;;;3.55;1.63;;;7.20;99.90;;;;;;5046103;28;20475;-74
2022/01/02 05:22:03;;;;;;;2.27;1.90;;;7.30;99.90;;;;;;5044659;28;20086;-73
2022/01/02 05:24:33;;;;;;;;;;;7.30;99.90;;;;;;5045689;28;20024;-75
2022/01/02 05:26:59;;;;;;;2.35;1.67;;;7.30;99.90;;;;;;5037941;28;19958;-75
2022/01/02 05:29:25;;;;;;;2.77;1.90;;;7.30;99.90;;;;;;5026104;28;20029;-75
2022/01/02 05:31:53;;;;;;;;;;;7.30;99.90;;;;;;5044135;28;20021;-74
2022/01/02 05:34:19;;;;;;;2.60;1.80;;;7.40;99.90;;;;;;5037703;28;19917;-75
2022/01/02 05:36:48;;;;;;;4.60;2.27;;;7.40;99.90;;;;;;5044955;28;20021;-74
2022/01/02 05:39:23;;;;;;;2.95;1.80;;;7.40;99.90;;;;;;5029797;28;20029;-75
2022/01/02 05:41:52;;;;;;;2.58;1.70;;;7.40;99.90;;;;;;5048423;28;20024;-77
2022/01/02 05:44:19;;;;;;;3.05;1.83;;;7.40;99.90;;;;;;5044957;28;20540;-75
2022/01/02 05:46:46;;;;;;;3.80;1.98;;;7.40;99.90;;;;;;5048041;28;20021;-75
2022/01/02 05:49:14;;;;;;;3.40;1.77;;;7.30;99.90;;;;;;5041094;28;20048;-74
2022/01/02 05:51:40;;;;;;;2.95;1.50;;;7.30;99.90;;;;;;5033157;28;20051;-75
2022/01/02 05:54:07;;;;;;;4.78;1.73;;;7.20;99.90;;;;;;5045734;28;20612;-74
2022/01/02 05:56:42;;;;;;;3.30;2.00;;;7.20;99.90;;;;;;5051277;28;20441;-75
2022/01/02 05:59:08;;;;;;;2.67;1.80;;;7.10;99.90;;;;;;5040585;28;20084;-75
2022/01/02 06:01:35;;;;;;;2.83;1.60;;;7.10;99.90;;;;;;5047234;28;20025;-75
2022/01/02 06:04:05;;;;;;;3.72;2.10;;;7.00;99.90;;;;;;5042952;28;20142;-74
2022/01/02 06:06:32;;;;;;;4.10;2.72;;;7.00;99.90;;;;;;5029841;28;20020;-76
2022/01/02 06:08:57;;;;;;;;;;;6.90;99.90;;;;;;5045078;28;20025;-74
2022/01/02 06:11:28;;;;;;;3.58;2.10;;;6.90;99.90;;;;;;5047839;28;19923;-79
2022/01/02 06:13:54;;;;;;;3.45;2.00;;;6.80;99.90;;;;;;5037237;28;20021;-74
2022/01/02 06:16:20;;;;;;;3.93;1.87;;;6.90;99.90;;;;;;5045345;28;20494;-76
2022/01/02 06:18:46;;;;;;;4.10;2.20;;;6.90;99.90;;;;;;5038044;28;20027;-75
2022/01/02 06:21:14;;;;;;;4.70;1.80;;;6.80;99.90;;;;;;5047721;28;20016;-75
2022/01/02 06:23:40;;;;;;;2.60;1.80;;;6.80;99.90;;;;;;5050240;28;20033;-75
2022/01/02 06:26:08;;;;;;;1.87;1.73;;;6.80;99.90;;;;;;5043171;28;20021;-75
2022/01/02 06:28:33;;;;;;;3.15;2.25;;;6.80;99.90;;;;;;5031006;28;20118;-77
2022/01/02 06:31:02;;;;;;;4.93;2.10;;;6.80;99.90;;;;;;5041007;28;20111;-83
2022/01/02 06:33:28;;;;;;;2.95;2.22;;;6.70;99.90;;;;;;5053921;28;20021;-80
2022/01/02 06:35:55;;;;;;;2.87;1.73;;;6.80;99.90;;;;;;5052921;28;20046;-75
2022/01/02 06:38:22;;;;;;;2.92;2.00;;;6.70;99.90;;;;;;5041325;28;20035;-77
2022/01/02 06:40:48;;;;;;;5.10;2.08;;;6.70;99.90;;;;;;5047650;28;20044;-75
2022/01/02 06:43:16;;;;;;;4.13;1.90;;;6.70;99.90;;;;;;5044575;28;20028;-75
2022/01/02 06:45:47;;;;;;;3.22;1.70;;;6.60;99.90;;;;;;5050080;28;20020;-75
2022/01/02 06:48:14;;;;;;;3.70;2.40;;;6.60;99.90;;;;;;5041558;28;20163;-76
2022/01/02 06:50:41;;;;;;;3.25;2.47;;;6.60;99.90;;;;;;5039125;28;20021;-79
2022/01/02 06:53:06;;;;;;;4.05;2.38;;;6.70;99.90;;;;;;5040904;28;20021;-75
2022/01/02 06:55:32;;;;;;;4.73;2.73;;;6.80;99.90;;;;;;5046419;28;20025;-73
2022/01/02 06:57:58;;;;;;;4.60;2.27;;;6.90;99.90;;;;;;5041431;28;20068;-74
2022/01/02 07:00:24;;;;;;;7.20;3.10;;;7.00;99.90;;;;;;5047799;28;20090;-75
2022/01/02 07:02:50;;;;;;;4.43;2.70;;;7.10;99.90;;;;;;5049430;28;20021;-74
2022/01/02 07:05:18;;;;;;;3.23;2.33;;;7.20;99.90;;;;;;5040884;28;20483;-73
2022/01/02 07:07:46;;;;;;;4.13;2.33;;;7.40;99.90;;;;;;5048579;28;20923;-74
2022/01/02 07:10:13;;;;;;;3.38;2.47;;;7.60;99.90;;;;;;5019904;28;20052;-73
2022/01/02 07:12:41;;;;;;;4.95;2.70;;;8.10;99.90;;;;;;5044233;28;20599;-73
2022/01/02 07:15:09;;;;;;;5.40;2.53;;;8.80;99.90;;;;;;5043831;28;20119;-73
2022/01/02 07:17:36;;;;;;;5.68;2.45;;;9.30;99.90;;;;;;5030685;28;20115;-74
2022/01/02 07:20:06;;;;;;;3.72;2.45;;;9.80;99.90;;;;;;5045698;28;20053;-74
2022/01/02 07:22:32;;;;;;;4.30;2.10;;;9.70;99.90;;;;;;5045545;28;20020;-74
2022/01/02 07:24:58;;;;;;;3.87;2.50;;;9.80;99.90;;;;;;5048783;28;20020;-74
2022/01/02 07:27:24;;;;;;;5.50;2.77;;;10.40;99.90;;;;;;5054513;28;20316;-74
2022/01/02 07:29:56;;;;;;;4.43;2.73;;;10.60;99.90;;;;;;5049618;28;20020;-74
2022/01/02 07:32:23;;;;;;;4.05;2.20;;;10.50;99.90;;;;;;5026747;28;20060;-73
2022/01/02 07:34:49;;;;;;;3.88;2.50;;;10.30;99.90;;;;;;5044593;28;20163;-73
2022/01/02 07:37:17;;;;;;;5.30;2.77;;;10.60;99.90;;;;;;5038112;28;20017;-73
2022/01/02 07:39:43;;;;;;;4.20;2.70;;;11.10;99.90;;;;;;5042493;28;20028;-73
2022/01/02 07:42:09;;;;;;;4.25;2.80;;;11.40;99.80;;;;;;5023470;28;20025;-75
2022/01/02 07:44:37;;;;;;;6.03;3.05;;;11.20;99.20;;;;;;5042222;28;20729;-74
2022/01/02 07:47:04;;;;;;;6.80;3.70;;;10.80;99.90;;;;;;5038310;28;20111;-74
2022/01/02 07:49:31;;;;;;;7.10;3.42;;;10.10;99.90;;;;;;5042621;28;20013;-75
2022/01/02 07:51:57;;;;;;;6.72;4.00;;;9.90;99.90;;;;;;5046300;28;20043;-73
2022/01/02 07:54:24;;;;;;;5.65;4.13;;;9.70;99.90;;;;;;5029472;28;20029;-74
2022/01/02 07:56:53;;;;;;;7.47;4.13;;;9.30;99.90;;;;;;5041778;28;20087;-75
2022/01/02 07:59:21;;;;;;;5.90;3.65;;;9.00;99.90;;;;;;5039065;28;20363;-74
2022/01/02 08:01:51;;;;;;;8.23;4.47;;;9.10;99.90;;;;;;5030363;28;20055;-74
2022/01/02 08:04:19;;;;;;;7.03;4.38;;;8.90;99.90;;;;;;5041903;28;20103;-77
2022/01/02 08:06:45;;;;;;;7.50;4.75;;;8.90;99.90;;;;;;5045438;28;20421;-76
2022/01/02 08:09:14;;;;;;;5.90;3.97;;;9.00;99.90;;;;;;5041220;28;20029;-74
2022/01/02 08:11:40;;;;;;;6.95;4.03;;;9.30;99.90;;;;;;5029535;28;20031;-74
2022/01/02 08:14:06;;;;;;;6.77;3.70;;;9.40;99.90;;;;;;5033221;28;20021;-72
2022/01/02 08:16:34;;;;;;;7.60;4.32;;;9.50;99.90;;;;;;5042592;28;20259;-73
2022/01/02 08:19:00;;;;;;;7.40;3.95;;;9.80;99.90;;;;;;5042549;28;20502;-73
2022/01/02 08:21:25;;;;;;;3.70;3.10;;;10.50;99.90;;;;;;5042141;28;20171;-73
2022/01/02 08:23:52;;;;;;;6.10;3.37;;;11.50;99.90;;;;;;5041742;28;20132;-74
2022/01/02 08:26:21;;;;;;;5.93;3.38;;;12.70;97.00;;;;;;5026678;28;20584;-74
2022/01/02 08:28:46;;;;;;;6.38;3.58;;;13.70;94.50;;;;;;5044532;28;20021;-74
2022/01/02 08:31:12;;;;;;;5.63;3.37;;;14.90;89.60;;;;;;5039618;28;20094;-74
2022/01/02 08:33:37;;;;;;;4.27;3.13;;;15.80;82.20;;;;;;5042268;28;20092;-74
2022/01/02 08:36:05;;;;;;;4.13;3.50;;;16.00;79.10;;;;;;5043030;28;20056;-74
2022/01/02 08:38:31;;;;;;;7.65;4.43;;;16.20;76.80;;;;;;5039718;28;20033;-74
2022/01/02 08:41:00;;;;;;;6.65;4.05;;;15.90;80.40;;;;;;5044396;28;20019;-74
2022/01/02 08:43:26;;;;;;;6.25;4.20;;;15.50;80.80;;;;;;5043525;28;20035;-75
2022/01/02 08:45:53;;;;;;;8.05;4.68;;;15.40;82.90;;;;;;5047182;28;20033;-74
2022/01/02 08:48:22;;;;;;;6.85;4.65;;;16.00;79.80;;;;;;5032790;28;20094;-74
2022/01/02 08:50:49;;;;;;;6.28;4.57;;;17.40;72.00;;;;;;5042899;28;20044;-73
2022/01/02 08:53:16;;;;;;;7.80;5.45;;;18.00;66.90;;;;;;5037313;28;20588;-74
2022/01/02 08:55:41;;;;;;;8.02;5.50;;;18.10;65.40;;;;;;5048828;28;20021;-73
2022/01/02 08:58:08;;;;;;;6.75;5.30;;;18.50;64.70;;;;;;5041536;28;20074;-74
2022/01/02 09:00:36;;;;;;;8.18;5.35;;;19.50;60.40;;;;;;5027438;28;20021;-73
2022/01/02 09:03:04;;;;;;;8.15;5.30;;;20.20;55.30;;;;;;5038587;28;20074;-74
2022/01/02 09:05:30;;;;;;;7.20;5.70;;;19.10;57.20;;;;;;5037314;28;20032;-73
2022/01/02 09:07:57;;;;;;;7.32;5.55;;;19.40;56.80;;;;;;5029612;28;20025;-74
2022/01/02 09:10:23;;;;;;;8.60;5.72;;;19.60;56.20;;;;;;5039214;28;20684;-74
2022/01/02 09:12:49;;;;;;;;;;;19.90;54.70;;;;;;5029081;28;20120;-74
2022/01/02 09:15:16;;;;;;;7.03;5.43;;;19.70;55.20;;;;;;5042131;28;19919;-73
2022/01/02 09:17:44;;;;;;;7.30;5.57;;;19.90;55.00;;;;;;5044979;28;20028;-74
2022/01/02 09:20:14;;;;;;;6.70;5.97;;;20.00;54.00;;;;;;5025030;28;20025;-74
2022/01/02 09:22:40;;;;;;;6.65;5.35;;;20.30;53.20;;;;;;5048127;28;20046;-74
2022/01/02 09:25:08;;;;;;;6.63;5.50;;;20.30;52.70;;;;;;5027113;28;20017;-74
2022/01/02 09:27:36;;;;;;;7.18;5.85;;;20.00;53.40;;;;;;5025813;28;20029;-73
2022/01/02 09:30:05;;;;;;;6.78;5.28;;;20.20;53.50;;;;;;5043132;28;20533;-73
2022/01/02 09:32:34;;;;;;;7.57;5.40;;;20.50;52.70;;;;;;5037123;28;20032;-74
2022/01/02 09:35:09;;;;;;;7.10;5.43;;;20.60;52.50;;;;;;5047353;28;20044;-73
2022/01/02 09:37:38;;;;;;;13.93;7.28;;;20.70;52.30;;;;;;5050667;28;20024;-75
2022/01/02 09:40:06;;;;;;;9.32;5.97;;;20.40;51.50;;;;;;5027245;28;20047;-74
2022/01/02 09:42:36;;;;;;;7.63;6.10;;;20.00;52.80;;;;;;5048670;28;20082;-73
2022/01/02 09:45:03;;;;;;;8.85;6.80;;;20.30;52.90;;;;;;5046593;28;20055;-75
2022/01/02 09:47:31;;;;;;;7.80;6.13;;;19.90;53.60;;;;;;5032957;28;20047;-73
2022/01/02 09:50:07;;;;;;;7.88;6.03;;;20.20;53.80;;;;;;5049918;28;20009;-74
2022/01/02 09:52:33;;;;;;;9.15;6.90;;;20.70;52.60;;;;;;5045039;28;20059;-73
2022/01/02 09:54:59;;;;;;;8.70;7.03;;;21.10;51.00;;;;;;5048290;28;20675;-74
2022/01/02 09:57:25;;;;;;;8.65;6.25;;;20.70;51.60;;;;;;5040099;28;20687;-74
2022/01/02 09:59:53;;;;;;;9.20;6.57;;;20.20;52.90;;;;;;5044802;28;20024;-74
2022/01/02 10:02:18;;;;;;;7.47;5.85;;;20.40;51.70;;;;;;5029003;28;20075;-74
2022/01/02 10:04:44;;;;;;;7.90;5.72;;;20.60;52.30;;;;;;5043286;28;20017;-74
2022/01/02 10:07:31;;;;;;;7.97;5.25;;;20.30;52.10;;;;;;5041526;28;20028;-74
2022/01/02 10:09:58;;;;;;;11.40;5.93;;;20.80;51.70;;;;;;5046141;28;20025;-74
2022/01/02 10:12:25;;;;;;;7.50;5.75;;;20.90;50.90;;;;;;5044113;28;20067;-73
2022/01/02 10:15:06;;;;;;;6.47;5.22;;;20.50;51.40;;;;;;5038721;28;20027;-73
2022/01/02 10:17:58;;;;;;;8.27;5.40;;;20.70;51.60;;;;;;5033581;28;20067;-73
2022/01/02 10:20:28;;;;;;;8.38;5.72;;;20.40;51.90;;;;;;5035175;28;20024;-73
2022/01/02 10:23:09;;;;;;;7.03;5.47;;;20.30;51.70;;;;;;5043976;28;20036;-73
2022/01/02 10:26:01;;;;;;;7.57;5.95;;;19.70;52.80;;;;;;5044083;28;20512;-73
2022/01/02 10:28:29;;;;;;;9.90;5.82;;;18.50;55.70;;;;;;5039909;28;20119;-74
2022/01/02 10:31:11;;;;;;;9.63;6.18;;;18.00;58.30;;;;;;5045738;28;20021;-73
2022/01/02 10:33:51;;;;;;;6.40;4.97;;;17.80;60.10;;;;;;5043224;28;20106;-75
2022/01/02 10:36:30;;;;;;;7.35;5.72;;;18.00;61.10;;;;;;5042115;28;20104;-74
2022/01/02 10:39:20;;;;;;;6.28;4.43;;;17.70;62.50;;;;;;5043147;28;20105;-74
2022/01/02 10:41:51;;;;;;;7.20;5.07;;;17.20;63.60;;;;;;5049486;28;20375;-74
2022/01/02 10:44:35;;;;;;;9.13;5.40;;;17.10;66.10;;;;;;5039779;28;20451;-74
2022/01/02 10:47:17;;;;;;;6.45;4.53;;;16.80;66.60;;;;;;5045146;28;20873;-75
2022/01/02 10:50:07;;;;;;;6.57;4.63;;;16.80;68.20;;;;;;5048173;28;20021;-74
2022/01/02 10:52:36;;;;;;;6.30;4.95;;;17.30;66.20;;;;;;5045571;28;20059;-75
2022/01/02 10:55:12;;;;;;;6.47;4.20;;;17.70;64.50;;;;;;5026471;28;20020;-74
2022/01/02 10:57:49;;;;;;;6.68;5.00;;;17.90;63.60;;;;;;5045854;28;20028;-74
2022/01/02 11:00:16;;;;;;;6.85;4.45;;;18.80;61.20;;;;;;5041902;28;20168;-74
2022/01/02 11:02:44;;;;;;;6.88;5.07;;;18.50;61.20;;;;;;5046012;28;20017;-75
2022/01/02 11:05:14;;;;;;;7.55;4.55;;;17.80;62.10;;;;;;5041007;28;20521;-74
2022/01/02 11:07:44;;;;;;;7.63;5.40;;;17.10;65.90;;;;;;5031691;28;20025;-74
2022/01/02 11:10:13;;;;;;;8.00;5.47;;;17.00;67.20;;;;;;5041109;28;20016;-75
2022/01/02 11:12:41;;;;;;;6.53;5.18;;;16.80;67.70;;;;;;5044919;28;20021;-71
2022/01/02 11:15:09;;;;;;;7.47;5.45;;;16.60;69.50;;;;;;5043199;28;20147;-72
2022/01/02 11:17:37;;;;;;;9.23;6.70;;;16.40;71.30;;;;;;5048631;28;20419;-71
2022/01/02 11:20:05;;;;;;;12.48;6.38;;;15.30;77.10;;;;;;5045602;28;20471;-71
2022/01/02 11:22:35;;;;;;;8.25;6.15;;;15.00;80.30;;;;;;5044909;28;20120;-71
2022/01/02 11:25:09;;;;;;;11.15;7.15;;;14.90;82.30;;;;;;5027425;28;20043;-71
2022/01/02 11:27:44;;;;;;;10.00;5.90;;;14.80;83.80;;;;;;5050022;28;20009;-72
2022/01/02 11:30:34;;;;;;;9.38;5.70;;;14.80;84.90;;;;;;5041563;28;20768;-72
2022/01/02 11:33:01;;;;;;;7.65;5.60;;;14.90;84.80;;;;;;5044736;28;20108;-71
2022/01/02 11:35:33;;;;;;;6.32;4.78;;;14.90;85.60;;;;;;5041202;28;20036;-72
2022/01/02 11:38:03;;;;;;;10.85;5.35;;;14.70;86.40;;;;;;5045101;28;20017;-71
2022/01/02 11:40:47;;;;;;;6.55;5.00;;;14.20;88.80;;;;;;5042717;28;20172;-75
2022/01/02 11:43:49;;;;;;;8.63;5.15;;;13.50;91.80;;;;;;5039939;28;20025;-71
2022/01/02 11:46:48;;;;;;;7.28;4.95;;;13.10;92.90;;;;;;5044150;28;20013;-72
2022/01/02 11:49:21;;;;;;;5.57;4.30;;;13.10;93.60;;;;;;5038357;28;20024;-72
2022/01/02 11:51:48;;;;;;;7.55;5.10;;;13.40;93.00;;;;;;5046761;28;20777;-71
2022/01/02 11:54:43;;;;;;;11.90;5.80;;;13.60;92.70;;;;;;5041902;28;20025;-71
2022/01/02 11:57:12;;;;;;;7.57;5.30;;;13.50;92.80;;;;;;5029112;28;20171;-72
2022/01/02 11:59:44;;;;;;;7.82;5.53;;;13.40;92.90;;;;;;5043867;28;20037;-71
2022/01/02 12:02:12;;;;;;;9.32;5.38;;;13.20;93.50;;;;;;5029995;28;20029;-72
2022/01/02 12:05:08;;;;;;;9.15;5.32;;;13.00;94.00;;;;;;5033963;28;20120;-71
2022/01/02 12:07:34;;;;;;;9.93;5.75;;;13.00;94.50;;;;;;5034070;28;20104;-71
2022/01/02 12:10:16;;;;;;;9.03;5.50;;;13.00;94.30;;;;;;5040391;28;20096;-71
2022/01/02 12:13:05;;;;;;;9.52;6.05;;;13.30;93.90;;;;;;5039919;28;20275;-71
2022/01/02 12:15:32;;;;;;;9.15;6.45;;;13.40;93.20;;;;;;5043095;28;20132;-72
2022/01/02 12:18:12;;;;;;;10.85;6.32;;;13.20;93.30;;;;;;5045218;28;20013;-72
2022/01/02 12:23:36;;;;;;;10.00;6.95;;;12.70;94.90;;;;;;5042207;28;20056;-74
2022/01/02 12:26:08;;;;;;;8.93;5.80;;;12.70;95.00;;;;;;5030262;28;20028;-73
2022/01/02 12:28:58;;;;;;;8.52;5.63;;;12.60;95.30;;;;;;5044006;28;20020;-76
2022/01/02 12:31:31;;;;;;;10.90;6.10;;;12.50;95.90;;;;;;5044077;28;20033;-73
2022/01/02 12:34:18;;;;;;;10.40;6.20;;;12.30;96.30;;;;;;5044503;28;20639;-73
2022/01/02 12:36:47;;;;;;;10.30;6.60;;;12.20;97.00;;;;;;5034659;28;20025;-73
2022/01/02 12:39:15;;;;;;;11.23;6.75;;;12.10;97.40;;;;;;5046356;28;20266;-74
2022/01/02 12:41:44;;;;;;;9.93;6.55;;;12.10;97.50;;;;;;5038584;28;20028;-74
2022/01/02 12:44:15;;;;;;;11.55;7.75;;;12.20;97.40;;;;;;5025673;28;20359;-73
2022/01/02 12:46:47;;;;;;;8.68;6.90;;;12.20;97.30;;;;;;5039096;28;20472;-74
2022/01/02 12:49:21;;;;;;;11.60;7.18;;;12.30;97.40;;;;;;5026128;28;20029;-73
2022/01/02 12:51:54;;;;;;;12.38;8.05;;;12.40;96.70;;;;;;5040466;28;20079;-73
2022/01/02 12:54:27;;;;;;;12.55;7.72;;;12.40;96.40;;;;;;5051151;28;20021;-73
2022/01/02 12:57:15;;;;;;;12.90;7.43;;;12.50;96.10;;;;;;5041023;28;20134;-73
2022/01/02 12:59:47;;;;;;;9.55;6.55;;;12.50;96.40;;;;;;5040570;28;20045;-74
2022/01/02 13:02:19;;;;;;;11.57;7.53;;;12.50;96.60;;;;;;5047069;28;20025;-73
2022/01/02 13:04:47;;;;;;;10.05;6.82;;;12.50;96.30;;;;;;5043580;28;20020;-73
2022/01/02 13:07:22;;;;;;;12.32;7.30;;;12.50;96.70;;;;;;5043773;28;20021;-73
2022/01/02 13:09:59;;;;;;;12.45;7.60;;;12.50;96.40;;;;;;5027094;28;20025;-75
2022/01/02 13:12:29;;;;;;;12.05;8.35;;;12.40;96.50;;;;;;5041751;28;20033;-73
2022/01/02 13:15:05;;;;;;;11.75;7.85;;;12.40;96.60;;;;;;5033053;28;20028;-71
2022/01/02 13:17:45;;;;;;;16.42;9.07;;;12.40;96.70;;;;;;5025978;28;20017;-73
2022/01/02 13:20:17;;;;;;;13.27;8.50;;;12.40;96.50;;;;;;5043147;28;20025;-71